Time;durP1;ratioP1;P1;durP2;ratioP2;P2;SDS_P1;SDS_P2;PMS_P1;PMS_P2;Temp;Humidity;BMP_temperature;BMP_pressure;BME280_temperature;BME280_humidity;BME280_pressure;Samples;Min_cycle;Max_cycle;Signal;HPM_P1;HPM_P2
2021/08/19 00:00:55;;;;;;;5.70;2.60;;;27.00;28.50;;;;;;21146867;27;81014;-73
2021/08/19 00:10:57;;;;;;;5.15;2.80;;;26.90;29.00;;;;;;21128511;27;81266;-74
2021/08/19 00:20:59;;;;;;;6.03;2.17;;;26.80;32.00;;;;;;21126845;27;81059;-73
2021/08/19 00:31:01;;;;;;;5.95;2.17;;;26.70;32.90;;;;;;21126588;27;81739;-74
2021/08/19 00:41:04;;;;;;;3.28;2.20;;;26.50;34.80;;;;;;21127086;27;82244;-76
2021/08/19 00:51:06;;;;;;;6.38;2.15;;;26.40;35.60;;;;;;21126540;27;81788;-75
2021/08/19 01:01:10;;;;;;;6.72;2.42;;;26.30;34.90;;;;;;21124674;27;81895;-71
2021/08/19 01:11:18;;;;;;;4.35;2.25;;;26.10;35.10;;;;;;21125669;27;81726;-73
2021/08/19 01:21:22;;;;;;;4.40;2.28;;;26.00;36.30;;;;;;21141753;27;80745;-73
2021/08/19 01:31:27;;;;;;;11.63;2.80;;;25.90;35.90;;;;;;21139736;27;81226;-72
2021/08/19 01:41:39;;;;;;;7.97;2.50;;;25.80;36.50;;;;;;21139628;27;80902;-72
2021/08/19 01:51:48;;;;;;;5.30;2.38;;;25.50;37.80;;;;;;21139809;27;80739;-72
2021/08/19 02:02:03;;;;;;;6.68;2.42;;;25.30;38.90;;;;;;21139204;27;82028;-73
2021/08/19 02:12:10;;;;;;;4.03;2.33;;;25.20;39.10;;;;;;21120907;27;80981;-73
2021/08/19 02:22:13;;;;;;;9.70;3.40;;;25.10;40.00;;;;;;21138020;27;80534;-72
2021/08/19 02:32:23;;;;;;;7.50;3.22;;;25.00;40.00;;;;;;21136941;27;80813;-73
2021/08/19 02:42:26;;;;;;;9.32;3.40;;;24.90;40.60;;;;;;21139868;27;80881;-72
2021/08/19 02:52:31;;;;;;;9.13;2.83;;;24.90;41.10;;;;;;21134028;27;79912;-73
2021/08/19 03:02:34;;;;;;;7.45;3.38;;;24.80;41.30;;;;;;21150935;27;80708;-72
2021/08/19 03:12:37;;;;;;;8.48;2.88;;;24.80;41.60;;;;;;21150371;27;82212;-73
2021/08/19 03:22:41;;;;;;;8.18;2.83;;;24.70;43.30;;;;;;21131390;27;80610;-73
2021/08/19 03:32:44;;;;;;;12.77;4.05;;;24.50;43.60;;;;;;21131826;27;81902;-74
2021/08/19 03:42:47;;;;;;;7.85;2.92;;;24.50;46.10;;;;;;21129831;27;80803;-73
2021/08/19 03:52:53;;;;;;;7.63;2.67;;;24.00;44.20;;;;;;21129281;27;81033;-74
2021/08/19 04:03:00;;;;;;;4.63;2.03;;;23.70;40.80;;;;;;21166724;27;81274;-75
2021/08/19 04:13:04;;;;;;;5.38;2.80;;;23.30;44.40;;;;;;21215465;27;80973;-73
2021/08/19 04:23:09;;;;;;;10.25;3.13;;;23.10;45.10;;;;;;21213810;27;80747;-72
2021/08/19 04:33:11;;;;;;;8.55;3.58;;;22.90;42.30;;;;;;21213587;27;81918;-72
2021/08/19 04:43:14;;;;;;;9.27;3.33;;;22.80;41.90;;;;;;21212787;27;80916;-72
2021/08/19 04:53:18;;;;;;;8.27;3.45;;;22.90;42.30;;;;;;21230341;27;81103;-71
2021/08/19 05:03:20;;;;;;;8.20;3.00;;;22.80;42.70;;;;;;21228897;27;80032;-71
2021/08/19 05:13:23;;;;;;;10.50;3.38;;;22.80;44.20;;;;;;21210011;27;81059;-72
2021/08/19 05:23:25;;;;;;;12.98;5.25;;;22.90;46.90;;;;;;21209336;27;81093;-72
2021/08/19 05:33:28;;;;;;;11.63;4.18;;;22.90;52.90;;;;;;21203815;27;81583;-74
2021/08/19 05:43:31;;;;;;;11.85;4.07;;;22.90;53.60;;;;;;21190642;27;80704;-75
2021/08/19 05:53:34;;;;;;;14.23;3.95;;;23.00;54.50;;;;;;21193038;27;81328;-74
2021/08/19 06:03:36;;;;;;;10.63;4.47;;;23.20;54.70;;;;;;21196327;27;81125;-73
2021/08/19 06:13:39;;;;;;;8.43;4.07;;;23.30;55.70;;;;;;21213737;27;81667;-75
2021/08/19 06:23:43;;;;;;;7.43;3.58;;;23.50;57.00;;;;;;21219193;27;80739;-75
2021/08/19 06:33:45;;;;;;;16.15;4.93;;;23.70;55.80;;;;;;21218672;27;81756;-74
2021/08/19 06:43:47;;;;;;;11.40;4.60;;;23.90;57.30;;;;;;21221394;27;81155;-74
2021/08/19 06:53:49;;;;;;;13.50;5.60;;;24.00;58.60;;;;;;21224501;27;82841;-66
2021/08/19 07:03:51;;;;;;;13.23;5.03;;;24.10;58.90;;;;;;21217317;27;80956;-66
2021/08/19 07:13:55;;;;;;;10.75;4.80;;;24.30;58.60;;;;;;21237622;27;81536;-66
2021/08/19 07:23:57;;;;;;;15.95;5.35;;;24.50;58.20;;;;;;21216214;27;81729;-69
2021/08/19 07:34:00;;;;;;;13.60;5.32;;;24.60;57.70;;;;;;21225435;27;81296;-65
2021/08/19 07:44:04;;;;;;;13.55;4.97;;;24.70;57.90;;;;;;21225444;27;81823;-66
2021/08/19 07:54:07;;;;;;;16.67;5.80;;;24.90;58.30;;;;;;21206521;27;81764;-66
2021/08/19 08:04:11;;;;;;;16.77;5.22;;;25.10;57.30;;;;;;21222609;27;82024;-65
2021/08/19 08:14:13;;;;;;;19.48;5.40;;;25.30;56.70;;;;;;21204785;27;81475;-66
2021/08/19 08:24:17;;;;;;;12.00;5.07;;;25.80;54.90;;;;;;21200831;27;82217;-66
2021/08/19 08:34:23;;;;;;;12.63;5.75;;;26.00;53.70;;;;;;21198048;27;81311;-64
2021/08/19 08:44:28;;;;;;;14.75;5.80;;;26.30;53.10;;;;;;21200113;27;81009;-68
2021/08/19 08:54:31;;;;;;;16.88;5.82;;;26.60;52.00;;;;;;21218367;27;81322;-65
2021/08/19 09:04:34;;;;;;;11.18;6.07;;;26.80;50.90;;;;;;21193461;27;82642;-64
2021/08/19 09:14:40;;;;;;;13.02;5.80;;;27.10;49.50;;;;;;21204001;27;81735;-64
2021/08/19 09:24:42;;;;;;;19.60;5.75;;;27.40;48.70;;;;;;21193488;27;80499;-66
2021/08/19 09:34:47;;;;;;;12.35;5.32;;;27.70;47.30;;;;;;21197571;27;82281;-65
2021/08/19 09:44:50;;;;;;;13.43;5.07;;;27.90;46.70;;;;;;21196829;27;81324;-63
2021/08/19 09:54:52;;;;;;;11.63;5.05;;;28.70;43.40;;;;;;21214132;27;81657;-65
2021/08/19 10:04:56;;;;;;;19.90;4.95;;;29.50;41.10;;;;;;21192004;27;81667;-64
2021/08/19 10:14:59;;;;;;;12.63;5.45;;;30.40;39.80;;;;;;21195969;27;81223;-72
2021/08/19 10:25:04;;;;;;;14.90;5.28;;;31.40;37.90;;;;;;21192213;27;81474;-64
2021/08/19 10:35:09;;;;;;;17.75;5.60;;;32.50;36.40;;;;;;21194173;27;81136;-65
2021/08/19 10:45:27;;;;;;;16.13;5.18;;;34.10;33.50;;;;;;21209167;27;82118;-65
2021/08/19 10:55:56;;;;;;;13.90;5.18;;;35.90;31.60;;;;;;21194046;27;81076;-65
2021/08/19 11:05:58;;;;;;;10.05;4.88;;;38.30;26.90;;;;;;21219651;27;81894;-71
2021/08/19 11:16:11;;;;;;;12.77;4.72;;;40.80;23.80;;;;;;21202471;27;81700;-67
2021/08/19 11:26:20;;;;;;;10.13;3.97;;;42.70;20.70;;;;;;21202845;27;81961;-64
2021/08/19 11:36:24;;;;;;;7.73;4.47;;;45.50;18.00;;;;;;21204222;27;81515;-64
2021/08/19 11:46:29;;;;;;;8.95;4.45;;;46.70;17.20;;;;;;21203783;27;81564;-66
2021/08/19 11:56:38;;;;;;;15.55;5.60;;;48.20;17.00;;;;;;21203393;27;81066;-65
2021/08/19 12:06:45;;;;;;;9.30;4.22;;;50.00;15.50;;;;;;21219533;27;82284;-63
2021/08/19 12:16:50;;;;;;;14.40;5.22;;;51.10;14.30;;;;;;21217242;27;81017;-65
2021/08/19 12:27:23;;;;;;;5.47;4.35;;;50.70;14.10;;;;;;21215245;27;81593;-63
2021/08/19 12:37:28;;;;;;;5.05;3.33;;;48.30;15.10;;;;;;21201921;27;81512;-65
2021/08/19 12:47:43;;;;;;;7.72;4.30;;;52.30;12.70;;;;;;21212434;27;81127;-66
2021/08/19 12:57:52;;;;;;;8.13;4.40;;;52.50;12.50;;;;;;21133344;27;80107;-67
2021/08/19 13:07:56;;;;;;;8.80;5.00;;;54.50;11.30;;;;;;21125687;27;83012;-66
2021/08/19 13:17:58;;;;;;;6.20;4.28;;;53.50;11.40;;;;;;21133636;27;82278;-69
2021/08/19 13:28:01;;;;;;;6.20;4.30;;;46.60;14.40;;;;;;21209377;27;81237;-67
2021/08/19 13:38:07;;;;;;;5.38;3.75;;;45.90;15.50;;;;;;21209993;27;80059;-62
2021/08/19 13:48:09;;;;;;;7.85;4.20;;;47.50;13.30;;;;;;21227284;27;82047;-61
2021/08/19 13:58:12;;;;;;;6.97;4.40;;;52.20;11.40;;;;;;21227560;27;80798;-61
2021/08/19 14:08:14;;;;;;;6.90;3.95;;;50.30;12.20;;;;;;21207975;27;80714;-63
2021/08/19 14:18:16;;;;;;;7.10;4.25;;;48.30;13.20;;;;;;21207764;27;81084;-62
2021/08/19 14:28:18;;;;;;;6.22;4.10;;;48.50;12.70;;;;;;21207644;27;80251;-62
2021/08/19 14:38:20;;;;;;;5.53;5.03;;;53.60;10.80;;;;;;21227742;27;81980;-62
2021/08/19 14:48:25;;;;;;;8.98;5.57;;;55.00;10.60;;;;;;21236651;27;80661;-64
2021/08/19 14:58:27;;;;;;;7.57;5.28;;;55.20;10.10;;;;;;21215659;27;81112;-61
2021/08/19 15:08:31;;;;;;;6.75;4.30;;;53.70;10.50;;;;;;21219379;27;80613;-61
2021/08/19 15:18:33;;;;;;;4.77;4.37;;;49.40;11.60;;;;;;21238324;27;81749;-62
2021/08/19 15:28:37;;;;;;;4.40;4.00;;;45.50;12.70;;;;;;21215255;27;81173;-66
2021/08/19 15:38:42;;;;;;;7.38;3.95;;;42.50;14.10;;;;;;21206259;27;80857;-64
2021/08/19 15:48:47;;;;;;;5.78;4.10;;;41.70;14.30;;;;;;21227552;27;81946;-64
2021/08/19 15:58:54;;;;;;;7.00;4.80;;;42.30;13.10;;;;;;21230051;27;81151;-64
2021/08/19 16:08:56;;;;;;;6.68;4.55;;;42.80;14.00;;;;;;21234162;27;81923;-64
2021/08/19 16:18:58;;;;;;;5.93;5.10;;;42.90;13.70;;;;;;21233550;27;81361;-64
2021/08/19 16:29:01;;;;;;;6.05;4.68;;;43.80;12.40;;;;;;21234165;27;81792;-64
2021/08/19 16:39:06;;;;;;;6.13;4.22;;;40.90;13.50;;;;;;21233444;27;81738;-65
2021/08/19 16:49:08;;;;;;;6.55;4.05;;;39.00;14.30;;;;;;21213490;27;80898;-64
2021/08/19 16:59:13;;;;;;;7.80;3.97;;;38.20;14.80;;;;;;21212128;27;82074;-64
2021/08/19 17:09:16;;;;;;;7.05;4.50;;;37.90;14.80;;;;;;21211617;27;80937;-64
2021/08/19 17:19:18;;;;;;;8.75;4.95;;;37.00;15.40;;;;;;21211365;27;80059;-65
2021/08/19 17:29:20;;;;;;;10.05;4.43;;;36.30;15.50;;;;;;21226784;27;80735;-65
2021/08/19 17:39:22;;;;;;;8.20;3.83;;;35.60;16.00;;;;;;21210060;27;80377;-65
2021/08/19 17:49:24;;;;;;;7.53;3.67;;;35.50;16.30;;;;;;21209377;27;80611;-64
2021/08/19 17:59:26;;;;;;;7.22;4.20;;;35.20;16.60;;;;;;21225680;27;80721;-63
2021/08/19 18:09:28;;;;;;;10.77;4.65;;;34.80;17.00;;;;;;21208299;27;80705;-64
2021/08/19 18:19:30;;;;;;;6.88;4.93;;;35.70;17.80;;;;;;21206694;27;80744;-65
2021/08/19 18:29:32;;;;;;;11.50;5.20;;;34.60;18.10;;;;;;21222978;27;81099;-64
2021/08/19 18:39:34;;;;;;;13.02;5.00;;;35.30;17.60;;;;;;21222317;27;80623;-65
2021/08/19 18:49:38;;;;;;;8.73;5.32;;;33.70;18.80;;;;;;21205566;27;81047;-66
2021/08/19 18:59:40;;;;;;;7.00;4.93;;;33.10;19.70;;;;;;21205154;27;82616;-68
2021/08/19 19:09:42;;;;;;;12.82;4.95;;;32.70;19.80;;;;;;21204914;27;80918;-66
2021/08/19 19:19:44;;;;;;;13.90;5.57;;;32.30;20.20;;;;;;21204853;27;80696;-76
2021/08/19 19:29:46;;;;;;;11.68;5.68;;;32.00;20.70;;;;;;21209387;27;80638;-83
2021/08/19 19:39:48;;;;;;;7.18;5.70;;;31.70;22.70;;;;;;21238058;27;79974;-76
2021/08/19 19:49:51;;;;;;;10.05;6.40;;;31.40;24.00;;;;;;21218212;27;82046;-77
2021/08/19 19:59:53;;;;;;;13.55;6.63;;;31.10;24.40;;;;;;21220470;27;80757;-78
2021/08/19 20:09:55;;;;;;;13.48;6.82;;;30.90;22.80;;;;;;21223746;27;80758;-79
2021/08/19 20:19:57;;;;;;;14.00;7.05;;;30.70;23.10;;;;;;21223248;27;82329;-79
2021/08/19 20:30:00;;;;;;;10.27;6.80;;;30.50;22.90;;;;;;21216521;27;80448;-74
2021/08/19 20:40:04;;;;;;;13.27;6.03;;;30.50;22.70;;;;;;21211710;27;80384;-74
2021/08/19 20:50:07;;;;;;;14.55;7.00;;;30.40;22.70;;;;;;21214417;27;81198;-74
2021/08/19 21:00:09;;;;;;;10.77;6.35;;;30.40;23.20;;;;;;21215802;27;81163;-76
2021/08/19 21:10:11;;;;;;;9.40;6.05;;;30.10;23.30;;;;;;21220902;27;81202;-75
2021/08/19 21:20:13;;;;;;;10.02;6.60;;;29.80;24.50;;;;;;21218284;27;80777;-74
2021/08/19 21:30:15;;;;;;;11.13;5.90;;;29.50;25.30;;;;;;21234648;27;81772;-76
2021/08/19 21:40:17;;;;;;;14.63;7.63;;;29.10;26.20;;;;;;21231572;27;81159;-77
2021/08/19 21:50:22;;;;;;;15.35;7.13;;;28.90;27.10;;;;;;21229143;27;81839;-73
2021/08/19 22:00:27;;;;;;;10.93;7.50;;;28.60;27.40;;;;;;21210029;27;80488;-74
2021/08/19 22:10:30;;;;;;;14.98;8.35;;;28.50;27.10;;;;;;21132804;27;80999;-76
2021/08/19 22:20:32;;;;;;;14.85;8.23;;;28.30;26.90;;;;;;21120734;27;80861;-75
2021/08/19 22:30:35;;;;;;;10.88;6.28;;;28.30;26.60;;;;;;21120324;27;80886;-74
2021/08/19 22:40:37;;;;;;;12.93;5.88;;;28.20;26.30;;;;;;21119170;27;81842;-73
2021/08/19 22:50:40;;;;;;;12.60;5.32;;;28.00;26.90;;;;;;21137513;27;80781;-76
2021/08/19 23:00:41;;;;;;;10.85;5.78;;;27.90;27.70;;;;;;21123101;27;80244;-75
2021/08/19 23:10:43;;;;;;;7.88;3.40;;;27.50;28.40;;;;;;21150934;27;80444;-74
2021/08/19 23:20:45;;;;;;;5.43;2.80;;;27.40;27.70;;;;;;21132411;27;80879;-76
2021/08/19 23:30:48;;;;;;;6.90;2.40;;;27.40;27.90;;;;;;21131676;27;79874;-75
2021/08/19 23:40:50;;;;;;;6.10;3.05;;;27.50;29.50;;;;;;21148970;27;80051;-77
2021/08/19 23:50:51;;;;;;;5.63;2.25;;;27.40;31.60;;;;;;21130380;27;80712;-76
